sensor_id;sensor_type;location;lat;lon;timestamp;P1;durP1;ratioP1;P2;durP2;ratioP2
11086;SDS011;5597;47.588;9.642;2022-11-14T00:00:38;8.43;;;7.50;;
11086;SDS011;5597;47.588;9.642;2022-11-14T00:03:05;9.60;;;7.83;;
11086;SDS011;5597;47.588;9.642;2022-11-14T00:05:32;11.10;;;8.70;;
11086;SDS011;5597;47.588;9.642;2022-11-14T00:08:02;9.00;;;7.87;;
11086;SDS011;5597;47.588;9.642;2022-11-14T00:10:27;9.00;;;8.10;;
11086;SDS011;5597;47.588;9.642;2022-11-14T00:12:53;8.10;;;6.63;;
11086;SDS011;5597;47.588;9.642;2022-11-14T00:15:19;8.30;;;7.50;;
11086;SDS011;5597;47.588;9.642;2022-11-14T00:17:44;8.70;;;7.80;;
11086;SDS011;5597;47.588;9.642;2022-11-14T00:20:10;8.80;;;7.90;;
11086;SDS011;5597;47.588;9.642;2022-11-14T00:22:37;10.70;;;9.13;;
11086;SDS011;5597;47.588;9.642;2022-11-14T00:25:03;9.40;;;8.30;;
11086;SDS011;5597;47.588;9.642;2022-11-14T00:27:29;9.67;;;8.63;;
11086;SDS011;5597;47.588;9.642;2022-11-14T00:29:54;9.50;;;8.20;;
11086;SDS011;5597;47.588;9.642;2022-11-14T00:32:20;9.20;;;8.23;;
11086;SDS011;5597;47.588;9.642;2022-11-14T00:34:46;10.53;;;8.57;;
11086;SDS011;5597;47.588;9.642;2022-11-14T00:37:12;9.60;;;8.43;;
11086;SDS011;5597;47.588;9.642;2022-11-14T00:39:38;8.50;;;7.60;;
11086;SDS011;5597;47.588;9.642;2022-11-14T00:42:03;9.93;;;8.50;;
11086;SDS011;5597;47.588;9.642;2022-11-14T00:44:29;9.70;;;8.57;;
11086;SDS011;5597;47.588;9.642;2022-11-14T00:46:55;10.50;;;9.40;;
11086;SDS011;5597;47.588;9.642;2022-11-14T00:49:20;10.30;;;9.17;;
11086;SDS011;5597;47.588;9.642;2022-11-14T00:51:46;10.03;;;9.03;;
11086;SDS011;5597;47.588;9.642;2022-11-14T00:54:12;10.50;;;9.20;;
11086;SDS011;5597;47.588;9.642;2022-11-14T00:56:37;9.83;;;8.77;;
11086;SDS011;5597;47.588;9.642;2022-11-14T00:59:03;10.77;;;9.33;;
11086;SDS011;5597;47.588;9.642;2022-11-14T01:01:28;9.50;;;8.13;;
11086;SDS011;5597;47.588;9.642;2022-11-14T01:03:54;10.63;;;9.03;;
11086;SDS011;5597;47.588;9.642;2022-11-14T01:06:19;10.53;;;8.83;;
11086;SDS011;5597;47.588;9.642;2022-11-14T01:08:45;10.20;;;8.60;;
11086;SDS011;5597;47.588;9.642;2022-11-14T01:11:14;9.50;;;8.50;;
11086;SDS011;5597;47.588;9.642;2022-11-14T01:13:41;9.43;;;8.30;;
11086;SDS011;5597;47.588;9.642;2022-11-14T01:16:07;9.80;;;8.50;;
11086;SDS011;5597;47.588;9.642;2022-11-14T01:18:33;9.90;;;8.57;;
11086;SDS011;5597;47.588;9.642;2022-11-14T01:21:04;11.33;;;10.00;;
11086;SDS011;5597;47.588;9.642;2022-11-14T01:23:32;9.83;;;8.70;;
11086;SDS011;5597;47.588;9.642;2022-11-14T01:26:01;9.13;;;8.13;;
11086;SDS011;5597;47.588;9.642;2022-11-14T01:28:32;10.30;;;9.20;;
11086;SDS011;5597;47.588;9.642;2022-11-14T01:33:53;11.03;;;9.50;;
11086;SDS011;5597;47.588;9.642;2022-11-14T01:36:19;11.57;;;10.37;;
11086;SDS011;5597;47.588;9.642;2022-11-14T01:38:45;11.53;;;9.50;;
11086;SDS011;5597;47.588;9.642;2022-11-14T01:41:15;11.03;;;9.03;;
11086;SDS011;5597;47.588;9.642;2022-11-14T01:43:41;10.47;;;8.87;;
11086;SDS011;5597;47.588;9.642;2022-11-14T01:46:17;10.23;;;9.03;;
11086;SDS011;5597;47.588;9.642;2022-11-14T01:51:28;14.13;;;11.23;;
11086;SDS011;5597;47.588;9.642;2022-11-14T01:54:01;10.93;;;9.70;;
11086;SDS011;5597;47.588;9.642;2022-11-14T01:56:33;12.17;;;10.37;;
11086;SDS011;5597;47.588;9.642;2022-11-14T01:59:07;11.93;;;10.53;;
11086;SDS011;5597;47.588;9.642;2022-11-14T02:01:39;11.13;;;9.57;;
11086;SDS011;5597;47.588;9.642;2022-11-14T02:04:08;10.73;;;9.57;;
11086;SDS011;5597;47.588;9.642;2022-11-14T02:06:35;12.43;;;10.57;;
11086;SDS011;5597;47.588;9.642;2022-11-14T02:09:03;12.30;;;10.23;;
11086;SDS011;5597;47.588;9.642;2022-11-14T02:11:32;11.50;;;10.27;;
11086;SDS011;5597;47.588;9.642;2022-11-14T02:14:01;12.13;;;10.20;;
11086;SDS011;5597;47.588;9.642;2022-11-14T02:16:27;11.70;;;10.20;;
11086;SDS011;5597;47.588;9.642;2022-11-14T02:18:54;14.90;;;11.70;;
11086;SDS011;5597;47.588;9.642;2022-11-14T02:21:19;13.47;;;10.10;;
11086;SDS011;5597;47.588;9.642;2022-11-14T02:23:45;13.63;;;11.00;;
11086;SDS011;5597;47.588;9.642;2022-11-14T02:26:10;11.53;;;9.93;;
11086;SDS011;5597;47.588;9.642;2022-11-14T02:28:36;12.93;;;11.23;;
11086;SDS011;5597;47.588;9.642;2022-11-14T02:31:02;13.13;;;11.03;;
11086;SDS011;5597;47.588;9.642;2022-11-14T02:33:27;14.13;;;11.50;;
11086;SDS011;5597;47.588;9.642;2022-11-14T02:35:53;14.63;;;11.63;;
11086;SDS011;5597;47.588;9.642;2022-11-14T02:38:18;12.97;;;10.77;;
11086;SDS011;5597;47.588;9.642;2022-11-14T02:40:44;11.93;;;10.00;;
11086;SDS011;5597;47.588;9.642;2022-11-14T02:43:10;11.27;;;8.93;;
11086;SDS011;5597;47.588;9.642;2022-11-14T02:45:35;12.50;;;9.87;;
11086;SDS011;5597;47.588;9.642;2022-11-14T02:48:01;10.57;;;9.17;;
11086;SDS011;5597;47.588;9.642;2022-11-14T02:50:27;10.53;;;9.23;;
11086;SDS011;5597;47.588;9.642;2022-11-14T02:52:52;9.93;;;8.63;;
11086;SDS011;5597;47.588;9.642;2022-11-14T02:55:18;11.33;;;8.93;;
11086;SDS011;5597;47.588;9.642;2022-11-14T02:57:45;13.40;;;11.03;;
11086;SDS011;5597;47.588;9.642;2022-11-14T03:00:10;12.77;;;10.57;;
11086;SDS011;5597;47.588;9.642;2022-11-14T03:02:36;12.13;;;10.20;;
11086;SDS011;5597;47.588;9.642;2022-11-14T03:05:02;10.43;;;8.90;;
11086;SDS011;5597;47.588;9.642;2022-11-14T03:07:28;9.63;;;8.20;;
11086;SDS011;5597;47.588;9.642;2022-11-14T03:09:53;9.37;;;8.37;;
11086;SDS011;5597;47.588;9.642;2022-11-14T03:12:19;8.90;;;8.00;;
11086;SDS011;5597;47.588;9.642;2022-11-14T03:14:45;8.87;;;7.93;;
11086;SDS011;5597;47.588;9.642;2022-11-14T03:17:10;8.20;;;7.30;;
11086;SDS011;5597;47.588;9.642;2022-11-14T03:19:36;8.23;;;7.33;;
11086;SDS011;5597;47.588;9.642;2022-11-14T03:22:02;10.50;;;8.80;;
11086;SDS011;5597;47.588;9.642;2022-11-14T03:24:28;8.97;;;8.00;;
11086;SDS011;5597;47.588;9.642;2022-11-14T03:26:54;9.27;;;7.87;;
11086;SDS011;5597;47.588;9.642;2022-11-14T03:29:19;8.73;;;7.83;;
11086;SDS011;5597;47.588;9.642;2022-11-14T03:31:45;8.90;;;8.00;;
11086;SDS011;5597;47.588;9.642;2022-11-14T03:34:10;9.17;;;8.13;;
11086;SDS011;5597;47.588;9.642;2022-11-14T03:36:36;9.40;;;7.60;;
11086;SDS011;5597;47.588;9.642;2022-11-14T03:39:02;8.93;;;8.03;;
11086;SDS011;5597;47.588;9.642;2022-11-14T03:41:28;9.50;;;8.50;;
11086;SDS011;5597;47.588;9.642;2022-11-14T03:43:54;9.03;;;7.97;;
11086;SDS011;5597;47.588;9.642;2022-11-14T03:46:20;9.37;;;8.07;;
11086;SDS011;5597;47.588;9.642;2022-11-14T03:48:45;9.03;;;8.10;;
11086;SDS011;5597;47.588;9.642;2022-11-14T03:51:11;9.50;;;8.50;;
11086;SDS011;5597;47.588;9.642;2022-11-14T03:53:37;9.23;;;8.00;;
11086;SDS011;5597;47.588;9.642;2022-11-14T03:56:03;8.40;;;7.50;;
11086;SDS011;5597;47.588;9.642;2022-11-14T03:58:29;8.43;;;7.20;;
11086;SDS011;5597;47.588;9.642;2022-11-14T04:00:54;7.40;;;6.60;;
11086;SDS011;5597;47.588;9.642;2022-11-14T04:03:20;8.60;;;7.47;;
11086;SDS011;5597;47.588;9.642;2022-11-14T04:05:49;8.20;;;6.83;;
11086;SDS011;5597;47.588;9.642;2022-11-14T04:08:15;6.87;;;6.17;;
11086;SDS011;5597;47.588;9.642;2022-11-14T04:10:41;7.40;;;6.27;;
11086;SDS011;5597;47.588;9.642;2022-11-14T04:13:10;6.50;;;5.90;;
11086;SDS011;5597;47.588;9.642;2022-11-14T04:15:36;6.43;;;5.77;;
11086;SDS011;5597;47.588;9.642;2022-11-14T04:18:01;7.50;;;6.73;;
11086;SDS011;5597;47.588;9.642;2022-11-14T04:20:27;6.87;;;6.17;;
11086;SDS011;5597;47.588;9.642;2022-11-14T04:22:52;6.67;;;5.97;;
11086;SDS011;5597;47.588;9.642;2022-11-14T04:25:18;6.80;;;6.10;;
11086;SDS011;5597;47.588;9.642;2022-11-14T04:27:43;7.20;;;6.50;;
11086;SDS011;5597;47.588;9.642;2022-11-14T04:30:09;6.50;;;5.87;;
11086;SDS011;5597;47.588;9.642;2022-11-14T04:32:35;6.70;;;6.00;;
11086;SDS011;5597;47.588;9.642;2022-11-14T04:35:01;6.97;;;6.27;;
11086;SDS011;5597;47.588;9.642;2022-11-14T04:37:26;5.83;;;5.23;;
11086;SDS011;5597;47.588;9.642;2022-11-14T04:39:52;6.23;;;5.63;;
11086;SDS011;5597;47.588;9.642;2022-11-14T04:42:18;6.90;;;6.20;;
11086;SDS011;5597;47.588;9.642;2022-11-14T04:44:44;6.10;;;5.50;;
11086;SDS011;5597;47.588;9.642;2022-11-14T04:47:09;6.47;;;5.77;;
11086;SDS011;5597;47.588;9.642;2022-11-14T04:49:35;6.33;;;5.73;;
11086;SDS011;5597;47.588;9.642;2022-11-14T04:52:00;6.47;;;5.87;;
11086;SDS011;5597;47.588;9.642;2022-11-14T04:54:26;6.63;;;5.93;;
11086;SDS011;5597;47.588;9.642;2022-11-14T04:56:52;5.83;;;5.23;;
11086;SDS011;5597;47.588;9.642;2022-11-14T04:59:17;6.03;;;5.43;;
11086;SDS011;5597;47.588;9.642;2022-11-14T05:01:43;6.33;;;5.73;;
11086;SDS011;5597;47.588;9.642;2022-11-14T05:04:08;5.33;;;4.83;;
11086;SDS011;5597;47.588;9.642;2022-11-14T05:06:34;5.93;;;5.33;;
11086;SDS011;5597;47.588;9.642;2022-11-14T05:08:59;5.63;;;5.00;;
11086;SDS011;5597;47.588;9.642;2022-11-14T05:11:25;5.63;;;5.13;;
11086;SDS011;5597;47.588;9.642;2022-11-14T05:13:51;5.50;;;5.00;;
11086;SDS011;5597;47.588;9.642;2022-11-14T05:16:16;5.13;;;4.63;;
11086;SDS011;5597;47.588;9.642;2022-11-14T05:18:42;5.17;;;4.67;;
11086;SDS011;5597;47.588;9.642;2022-11-14T05:21:11;4.90;;;4.50;;
11086;SDS011;5597;47.588;9.642;2022-11-14T05:23:38;4.67;;;4.27;;
11086;SDS011;5597;47.588;9.642;2022-11-14T05:26:05;5.17;;;4.67;;
11086;SDS011;5597;47.588;9.642;2022-11-14T05:28:32;6.53;;;5.80;;
11086;SDS011;5597;47.588;9.642;2022-11-14T05:31:05;7.40;;;6.70;;
11086;SDS011;5597;47.588;9.642;2022-11-14T05:33:33;7.20;;;6.50;;
11086;SDS011;5597;47.588;9.642;2022-11-14T05:36:09;7.20;;;6.50;;
11086;SDS011;5597;47.588;9.642;2022-11-14T05:38:36;7.90;;;7.10;;
11086;SDS011;5597;47.588;9.642;2022-11-14T05:41:09;6.97;;;6.27;;
11086;SDS011;5597;47.588;9.642;2022-11-14T05:43:39;6.03;;;5.40;;
11086;SDS011;5597;47.588;9.642;2022-11-14T05:46:06;6.77;;;6.17;;
11086;SDS011;5597;47.588;9.642;2022-11-14T05:48:34;6.40;;;5.67;;
11086;SDS011;5597;47.588;9.642;2022-11-14T05:51:00;7.80;;;7.03;;
11086;SDS011;5597;47.588;9.642;2022-11-14T05:53:28;7.87;;;6.43;;
11086;SDS011;5597;47.588;9.642;2022-11-14T05:55:58;6.80;;;6.10;;
11086;SDS011;5597;47.588;9.642;2022-11-14T05:58:25;6.13;;;5.53;;
11086;SDS011;5597;47.588;9.642;2022-11-14T06:00:51;6.67;;;5.97;;
11086;SDS011;5597;47.588;9.642;2022-11-14T06:03:17;6.27;;;5.67;;
11086;SDS011;5597;47.588;9.642;2022-11-14T06:05:42;7.23;;;6.53;;
11086;SDS011;5597;47.588;9.642;2022-11-14T06:08:08;7.37;;;6.60;;
11086;SDS011;5597;47.588;9.642;2022-11-14T06:10:34;6.57;;;5.97;;
11086;SDS011;5597;47.588;9.642;2022-11-14T06:13:00;6.90;;;6.20;;
11086;SDS011;5597;47.588;9.642;2022-11-14T06:15:26;6.83;;;6.13;;
11086;SDS011;5597;47.588;9.642;2022-11-14T06:17:52;6.37;;;5.77;;
11086;SDS011;5597;47.588;9.642;2022-11-14T06:20:18;7.50;;;6.73;;
11086;SDS011;5597;47.588;9.642;2022-11-14T06:22:44;7.37;;;6.60;;
11086;SDS011;5597;47.588;9.642;2022-11-14T06:25:09;7.63;;;6.83;;
11086;SDS011;5597;47.588;9.642;2022-11-14T06:27:35;8.23;;;7.03;;
11086;SDS011;5597;47.588;9.642;2022-11-14T06:30:00;7.80;;;6.20;;
11086;SDS011;5597;47.588;9.642;2022-11-14T06:32:26;6.40;;;5.80;;
11086;SDS011;5597;47.588;9.642;2022-11-14T06:34:52;7.17;;;6.47;;
11086;SDS011;5597;47.588;9.642;2022-11-14T06:37:18;6.50;;;5.90;;
11086;SDS011;5597;47.588;9.642;2022-11-14T06:39:43;6.60;;;5.70;;
11086;SDS011;5597;47.588;9.642;2022-11-14T06:42:09;5.87;;;5.27;;
11086;SDS011;5597;47.588;9.642;2022-11-14T06:44:34;6.30;;;5.70;;
11086;SDS011;5597;47.588;9.642;2022-11-14T06:47:00;5.20;;;4.70;;
11086;SDS011;5597;47.588;9.642;2022-11-14T06:49:25;5.40;;;4.90;;
11086;SDS011;5597;47.588;9.642;2022-11-14T06:51:51;5.57;;;4.97;;
11086;SDS011;5597;47.588;9.642;2022-11-14T06:54:17;5.70;;;5.10;;
11086;SDS011;5597;47.588;9.642;2022-11-14T06:56:43;4.93;;;4.43;;
11086;SDS011;5597;47.588;9.642;2022-11-14T06:59:09;4.70;;;4.30;;
11086;SDS011;5597;47.588;9.642;2022-11-14T07:01:34;5.60;;;4.93;;
11086;SDS011;5597;47.588;9.642;2022-11-14T07:04:00;5.60;;;5.00;;
11086;SDS011;5597;47.588;9.642;2022-11-14T07:06:26;5.77;;;4.90;;
11086;SDS011;5597;47.588;9.642;2022-11-14T07:08:54;6.13;;;5.40;;
11086;SDS011;5597;47.588;9.642;2022-11-14T07:11:24;5.60;;;5.10;;
11086;SDS011;5597;47.588;9.642;2022-11-14T07:13:56;5.93;;;5.37;;
11086;SDS011;5597;47.588;9.642;2022-11-14T07:16:26;5.87;;;5.03;;
11086;SDS011;5597;47.588;9.642;2022-11-14T07:18:57;5.63;;;5.03;;
11086;SDS011;5597;47.588;9.642;2022-11-14T07:21:23;6.40;;;5.80;;
11086;SDS011;5597;47.588;9.642;2022-11-14T07:23:49;6.87;;;6.17;;
11086;SDS011;5597;47.588;9.642;2022-11-14T07:26:15;7.90;;;7.07;;
11086;SDS011;5597;47.588;9.642;2022-11-14T07:28:42;7.10;;;6.30;;
11086;SDS011;5597;47.588;9.642;2022-11-14T07:31:09;7.67;;;6.80;;
11086;SDS011;5597;47.588;9.642;2022-11-14T07:33:37;9.10;;;7.73;;
11086;SDS011;5597;47.588;9.642;2022-11-14T07:36:03;7.57;;;6.77;;
11086;SDS011;5597;47.588;9.642;2022-11-14T07:38:30;7.60;;;6.80;;
11086;SDS011;5597;47.588;9.642;2022-11-14T07:40:57;8.23;;;7.37;;
11086;SDS011;5597;47.588;9.642;2022-11-14T07:43:24;10.33;;;9.07;;
11086;SDS011;5597;47.588;9.642;2022-11-14T07:45:50;10.60;;;9.50;;
11086;SDS011;5597;47.588;9.642;2022-11-14T07:48:16;10.20;;;9.03;;
11086;SDS011;5597;47.588;9.642;2022-11-14T07:50:42;10.13;;;8.93;;
11086;SDS011;5597;47.588;9.642;2022-11-14T07:53:08;11.80;;;10.37;;
11086;SDS011;5597;47.588;9.642;2022-11-14T07:55:34;12.57;;;11.30;;
11086;SDS011;5597;47.588;9.642;2022-11-14T07:58:01;13.10;;;11.17;;
11086;SDS011;5597;47.588;9.642;2022-11-14T08:00:27;12.43;;;11.07;;
11086;SDS011;5597;47.588;9.642;2022-11-14T08:02:52;12.50;;;11.20;;
11086;SDS011;5597;47.588;9.642;2022-11-14T08:05:18;13.83;;;11.23;;
11086;SDS011;5597;47.588;9.642;2022-11-14T08:07:44;12.37;;;11.00;;
11086;SDS011;5597;47.588;9.642;2022-11-14T08:10:10;13.90;;;11.93;;
11086;SDS011;5597;47.588;9.642;2022-11-14T08:12:38;13.93;;;12.23;;
11086;SDS011;5597;47.588;9.642;2022-11-14T08:15:05;14.77;;;12.17;;
11086;SDS011;5597;47.588;9.642;2022-11-14T08:17:32;14.37;;;12.53;;
11086;SDS011;5597;47.588;9.642;2022-11-14T08:19:58;13.37;;;11.40;;
11086;SDS011;5597;47.588;9.642;2022-11-14T08:22:24;13.17;;;11.60;;
11086;SDS011;5597;47.588;9.642;2022-11-14T08:24:49;11.43;;;10.23;;
11086;SDS011;5597;47.588;9.642;2022-11-14T08:27:15;11.97;;;9.97;;
11086;SDS011;5597;47.588;9.642;2022-11-14T08:29:40;11.43;;;10.27;;
11086;SDS011;5597;47.588;9.642;2022-11-14T08:32:06;11.20;;;10.03;;
11086;SDS011;5597;47.588;9.642;2022-11-14T08:34:31;10.07;;;9.07;;
11086;SDS011;5597;47.588;9.642;2022-11-14T08:36:57;10.07;;;9.07;;
11086;SDS011;5597;47.588;9.642;2022-11-14T08:39:23;9.83;;;8.73;;
11086;SDS011;5597;47.588;9.642;2022-11-14T08:41:48;10.77;;;9.00;;
11086;SDS011;5597;47.588;9.642;2022-11-14T08:44:14;7.87;;;7.07;;
11086;SDS011;5597;47.588;9.642;2022-11-14T08:46:39;8.47;;;7.57;;
11086;SDS011;5597;47.588;9.642;2022-11-14T08:49:05;8.23;;;6.93;;
11086;SDS011;5597;47.588;9.642;2022-11-14T08:51:30;7.57;;;6.83;;
11086;SDS011;5597;47.588;9.642;2022-11-14T08:53:56;7.87;;;7.07;;
11086;SDS011;5597;47.588;9.642;2022-11-14T08:56:22;8.37;;;7.50;;
11086;SDS011;5597;47.588;9.642;2022-11-14T08:58:47;9.10;;;8.00;;
11086;SDS011;5597;47.588;9.642;2022-11-14T09:01:13;8.20;;;7.40;;
11086;SDS011;5597;47.588;9.642;2022-11-14T09:03:38;8.17;;;7.37;;
11086;SDS011;5597;47.588;9.642;2022-11-14T09:06:04;8.80;;;7.43;;
11086;SDS011;5597;47.588;9.642;2022-11-14T09:08:30;9.00;;;8.10;;
11086;SDS011;5597;47.588;9.642;2022-11-14T09:10:58;8.97;;;8.07;;
11086;SDS011;5597;47.588;9.642;2022-11-14T09:13:25;10.63;;;9.53;;
11086;SDS011;5597;47.588;9.642;2022-11-14T09:15:51;10.67;;;9.57;;
11086;SDS011;5597;47.588;9.642;2022-11-14T09:18:17;13.53;;;10.90;;
11086;SDS011;5597;47.588;9.642;2022-11-14T09:20:42;14.00;;;12.53;;
11086;SDS011;5597;47.588;9.642;2022-11-14T09:23:08;12.13;;;10.83;;
11086;SDS011;5597;47.588;9.642;2022-11-14T09:25:34;11.53;;;10.33;;
11086;SDS011;5597;47.588;9.642;2022-11-14T09:28:06;12.97;;;10.87;;
11086;SDS011;5597;47.588;9.642;2022-11-14T09:30:32;11.63;;;10.40;;
11086;SDS011;5597;47.588;9.642;2022-11-14T09:32:59;11.40;;;10.13;;
11086;SDS011;5597;47.588;9.642;2022-11-14T09:35:25;12.10;;;9.90;;
11086;SDS011;5597;47.588;9.642;2022-11-14T09:37:58;10.17;;;8.60;;
11086;SDS011;5597;47.588;9.642;2022-11-14T09:40:27;9.73;;;8.47;;
11086;SDS011;5597;47.588;9.642;2022-11-14T09:42:58;9.60;;;8.70;;
11086;SDS011;5597;47.588;9.642;2022-11-14T09:45:41;12.73;;;10.20;;
11086;SDS011;5597;47.588;9.642;2022-11-14T09:48:12;10.63;;;9.53;;
11086;SDS011;5597;47.588;9.642;2022-11-14T09:50:43;10.80;;;9.30;;
11086;SDS011;5597;47.588;9.642;2022-11-14T09:53:32;11.10;;;9.90;;
11086;SDS011;5597;47.588;9.642;2022-11-14T09:56:01;12.43;;;9.77;;
11086;SDS011;5597;47.588;9.642;2022-11-14T09:58:27;9.13;;;8.13;;
11086;SDS011;5597;47.588;9.642;2022-11-14T10:01:03;10.97;;;9.00;;
11086;SDS011;5597;47.588;9.642;2022-11-14T10:06:14;11.57;;;9.63;;
11086;SDS011;5597;47.588;9.642;2022-11-14T10:09:09;12.77;;;10.13;;
11086;SDS011;5597;47.588;9.642;2022-11-14T10:17:04;11.90;;;10.33;;
11086;SDS011;5597;47.588;9.642;2022-11-14T10:25:26;10.33;;;9.23;;
11086;SDS011;5597;47.588;9.642;2022-11-14T10:28:03;9.17;;;8.23;;
11086;SDS011;5597;47.588;9.642;2022-11-14T10:30:52;9.47;;;8.50;;
11086;SDS011;5597;47.588;9.642;2022-11-14T10:33:40;7.70;;;6.70;;
11086;SDS011;5597;47.588;9.642;2022-11-14T10:42:08;8.13;;;6.80;;
11086;SDS011;5597;47.588;9.642;2022-11-14T10:44:43;8.20;;;7.30;;
11086;SDS011;5597;47.588;9.642;2022-11-14T10:47:17;10.33;;;8.27;;
11086;SDS011;5597;47.588;9.642;2022-11-14T10:49:47;8.47;;;7.10;;
11086;SDS011;5597;47.588;9.642;2022-11-14T10:52:16;7.83;;;6.90;;
11086;SDS011;5597;47.588;9.642;2022-11-14T10:54:47;7.73;;;6.93;;
11086;SDS011;5597;47.588;9.642;2022-11-14T10:57:18;7.70;;;6.60;;
11086;SDS011;5597;47.588;9.642;2022-11-14T10:59:45;8.23;;;6.73;;
11086;SDS011;5597;47.588;9.642;2022-11-14T11:02:11;8.33;;;6.83;;
11086;SDS011;5597;47.588;9.642;2022-11-14T11:04:39;7.73;;;6.93;;
11086;SDS011;5597;47.588;9.642;2022-11-14T11:09:32;7.83;;;6.63;;
11086;SDS011;5597;47.588;9.642;2022-11-14T11:12:22;7.43;;;6.73;;
11086;SDS011;5597;47.588;9.642;2022-11-14T11:15:07;6.63;;;6.03;;
11086;SDS011;5597;47.588;9.642;2022-11-14T11:23:34;7.37;;;6.30;;
11086;SDS011;5597;47.588;9.642;2022-11-14T11:26:05;5.63;;;4.97;;
11086;SDS011;5597;47.588;9.642;2022-11-14T11:28:34;5.37;;;4.87;;
11086;SDS011;5597;47.588;9.642;2022-11-14T11:31:01;5.30;;;4.77;;
11086;SDS011;5597;47.588;9.642;2022-11-14T11:33:33;4.77;;;4.37;;
11086;SDS011;5597;47.588;9.642;2022-11-14T11:36:11;6.93;;;6.23;;
11086;SDS011;5597;47.588;9.642;2022-11-14T11:38:40;6.37;;;5.77;;
11086;SDS011;5597;47.588;9.642;2022-11-14T11:41:17;6.80;;;5.93;;
11086;SDS011;5597;47.588;9.642;2022-11-14T11:44:00;6.03;;;5.43;;
11086;SDS011;5597;47.588;9.642;2022-11-14T11:49:10;4.87;;;4.47;;
11086;SDS011;5597;47.588;9.642;2022-11-14T11:51:53;4.67;;;4.07;;
11086;SDS011;5597;47.588;9.642;2022-11-14T11:54:26;4.80;;;4.30;;
11086;SDS011;5597;47.588;9.642;2022-11-14T11:56:58;4.97;;;4.47;;
11086;SDS011;5597;47.588;9.642;2022-11-14T11:59:36;4.10;;;3.70;;
11086;SDS011;5597;47.588;9.642;2022-11-14T12:04:48;4.40;;;3.70;;
11086;SDS011;5597;47.588;9.642;2022-11-14T12:07:17;5.10;;;4.23;;
11086;SDS011;5597;47.588;9.642;2022-11-14T12:09:44;3.90;;;3.47;;
11086;SDS011;5597;47.588;9.642;2022-11-14T12:12:12;4.33;;;3.63;;
11086;SDS011;5597;47.588;9.642;2022-11-14T12:14:53;4.43;;;4.03;;
11086;SDS011;5597;47.588;9.642;2022-11-14T12:26:27;4.53;;;3.30;;
11086;SDS011;5597;47.588;9.642;2022-11-14T12:31:41;3.13;;;2.90;;
11086;SDS011;5597;47.588;9.642;2022-11-14T12:34:29;3.13;;;2.73;;
11086;SDS011;5597;47.588;9.642;2022-11-14T12:37:48;3.00;;;2.70;;
11086;SDS011;5597;47.588;9.642;2022-11-14T12:40:06;2.70;;;2.50;;
11086;SDS011;5597;47.588;9.642;2022-11-14T12:42:45;2.70;;;2.47;;
11086;SDS011;5597;47.588;9.642;2022-11-14T12:48:19;2.67;;;2.47;;
11086;SDS011;5597;47.588;9.642;2022-11-14T12:50:47;3.10;;;2.80;;
11086;SDS011;5597;47.588;9.642;2022-11-14T13:01:47;4.00;;;3.20;;
11086;SDS011;5597;47.588;9.642;2022-11-14T13:07:17;3.10;;;2.80;;
11086;SDS011;5597;47.588;9.642;2022-11-14T13:18:23;3.87;;;3.00;;
11086;SDS011;5597;47.588;9.642;2022-11-14T13:21:16;2.83;;;2.57;;
11086;SDS011;5597;47.588;9.642;2022-11-14T13:24:02;2.80;;;2.60;;
11086;SDS011;5597;47.588;9.642;2022-11-14T13:28:56;3.23;;;2.90;;
11086;SDS011;5597;47.588;9.642;2022-11-14T13:48:21;2.90;;;2.70;;
11086;SDS011;5597;47.588;9.642;2022-11-14T13:51:12;2.50;;;2.30;;
11086;SDS011;5597;47.588;9.642;2022-11-14T13:53:41;2.50;;;2.30;;
11086;SDS011;5597;47.588;9.642;2022-11-14T14:16:03;2.63;;;2.43;;
11086;SDS011;5597;47.588;9.642;2022-11-14T14:21:47;2.60;;;2.40;;
11086;SDS011;5597;47.588;9.642;2022-11-14T14:30:18;2.97;;;2.73;;
11086;SDS011;5597;47.588;9.642;2022-11-14T14:35:33;3.10;;;2.80;;
11086;SDS011;5597;47.588;9.642;2022-11-14T14:38:00;3.23;;;2.93;;
11086;SDS011;5597;47.588;9.642;2022-11-14T14:40:27;3.30;;;3.00;;
11086;SDS011;5597;47.588;9.642;2022-11-14T14:43:00;3.30;;;3.00;;
11086;SDS011;5597;47.588;9.642;2022-11-14T14:45:29;3.33;;;2.67;;
11086;SDS011;5597;47.588;9.642;2022-11-14T14:53:04;2.77;;;2.53;;
11086;SDS011;5597;47.588;9.642;2022-11-14T14:55:33;3.20;;;2.90;;
11086;SDS011;5597;47.588;9.642;2022-11-14T15:01:05;2.80;;;2.50;;
11086;SDS011;5597;47.588;9.642;2022-11-14T15:03:35;3.00;;;2.70;;
11086;SDS011;5597;47.588;9.642;2022-11-14T15:06:29;3.50;;;2.53;;
11086;SDS011;5597;47.588;9.642;2022-11-14T15:09:02;3.27;;;2.77;;
11086;SDS011;5597;47.588;9.642;2022-11-14T15:11:34;5.63;;;4.43;;
11086;SDS011;5597;47.588;9.642;2022-11-14T15:14:03;4.00;;;3.60;;
11086;SDS011;5597;47.588;9.642;2022-11-14T15:16:30;3.40;;;3.10;;
11086;SDS011;5597;47.588;9.642;2022-11-14T15:18:57;3.17;;;2.87;;
11086;SDS011;5597;47.588;9.642;2022-11-14T15:21:27;3.30;;;3.00;;
11086;SDS011;5597;47.588;9.642;2022-11-14T15:26:37;3.30;;;3.00;;
11086;SDS011;5597;47.588;9.642;2022-11-14T15:29:04;4.10;;;3.70;;
11086;SDS011;5597;47.588;9.642;2022-11-14T15:31:54;3.80;;;3.40;;
11086;SDS011;5597;47.588;9.642;2022-11-14T15:34:23;3.40;;;3.10;;
11086;SDS011;5597;47.588;9.642;2022-11-14T15:39:49;3.30;;;3.00;;
11086;SDS011;5597;47.588;9.642;2022-11-14T15:44:55;3.03;;;2.73;;
11086;SDS011;5597;47.588;9.642;2022-11-14T15:47:26;2.83;;;2.53;;
11086;SDS011;5597;47.588;9.642;2022-11-14T15:50:04;2.93;;;2.70;;
11086;SDS011;5597;47.588;9.642;2022-11-14T15:52:40;3.70;;;2.73;;
11086;SDS011;5597;47.588;9.642;2022-11-14T15:55:23;3.17;;;2.80;;
11086;SDS011;5597;47.588;9.642;2022-11-14T15:57:49;3.33;;;3.03;;
11086;SDS011;5597;47.588;9.642;2022-11-14T16:00:15;3.37;;;3.03;;
11086;SDS011;5597;47.588;9.642;2022-11-14T16:02:42;3.00;;;2.70;;
11086;SDS011;5597;47.588;9.642;2022-11-14T16:05:12;3.40;;;3.10;;
11086;SDS011;5597;47.588;9.642;2022-11-14T16:07:38;3.20;;;2.90;;
11086;SDS011;5597;47.588;9.642;2022-11-14T16:10:14;3.30;;;2.87;;
11086;SDS011;5597;47.588;9.642;2022-11-14T16:12:41;3.53;;;3.00;;
11086;SDS011;5597;47.588;9.642;2022-11-14T16:15:07;4.00;;;3.60;;
11086;SDS011;5597;47.588;9.642;2022-11-14T16:17:34;3.20;;;2.90;;
11086;SDS011;5597;47.588;9.642;2022-11-14T16:20:05;3.90;;;3.27;;
11086;SDS011;5597;47.588;9.642;2022-11-14T16:22:34;3.83;;;3.30;;
11086;SDS011;5597;47.588;9.642;2022-11-14T16:25:00;4.57;;;4.10;;
11086;SDS011;5597;47.588;9.642;2022-11-14T16:27:26;5.40;;;4.30;;
11086;SDS011;5597;47.588;9.642;2022-11-14T16:29:51;5.60;;;4.77;;
11086;SDS011;5597;47.588;9.642;2022-11-14T16:32:17;6.13;;;4.20;;
11086;SDS011;5597;47.588;9.642;2022-11-14T16:34:43;6.30;;;4.40;;
11086;SDS011;5597;47.588;9.642;2022-11-14T16:37:12;6.30;;;4.50;;
11086;SDS011;5597;47.588;9.642;2022-11-14T16:39:38;6.10;;;4.80;;
11086;SDS011;5597;47.588;9.642;2022-11-14T16:42:04;5.60;;;4.67;;
11086;SDS011;5597;47.588;9.642;2022-11-14T16:44:31;4.57;;;4.17;;
11086;SDS011;5597;47.588;9.642;2022-11-14T16:46:57;4.63;;;4.17;;
11086;SDS011;5597;47.588;9.642;2022-11-14T16:49:22;5.60;;;4.20;;
11086;SDS011;5597;47.588;9.642;2022-11-14T16:51:49;4.83;;;4.17;;
11086;SDS011;5597;47.588;9.642;2022-11-14T16:54:18;5.00;;;4.00;;
11086;SDS011;5597;47.588;9.642;2022-11-14T16:56:44;5.07;;;4.57;;
11086;SDS011;5597;47.588;9.642;2022-11-14T16:59:10;5.00;;;4.50;;
11086;SDS011;5597;47.588;9.642;2022-11-14T17:01:36;4.73;;;4.23;;
11086;SDS011;5597;47.588;9.642;2022-11-14T17:04:02;4.53;;;4.10;;
11086;SDS011;5597;47.588;9.642;2022-11-14T17:06:28;4.40;;;4.00;;
11086;SDS011;5597;47.588;9.642;2022-11-14T17:08:58;6.67;;;4.47;;
11086;SDS011;5597;47.588;9.642;2022-11-14T17:11:24;5.83;;;4.40;;
11086;SDS011;5597;47.588;9.642;2022-11-14T17:13:50;5.20;;;4.30;;
11086;SDS011;5597;47.588;9.642;2022-11-14T17:16:16;5.30;;;4.33;;
11086;SDS011;5597;47.588;9.642;2022-11-14T17:18:42;4.37;;;3.73;;
11086;SDS011;5597;47.588;9.642;2022-11-14T17:21:09;4.53;;;4.13;;
11086;SDS011;5597;47.588;9.642;2022-11-14T17:23:35;6.03;;;5.43;;